Terminal Aerodrome Forecast
Issued by NWS Lubbock, TX

Home | Current Version | Previous Version | Text Only | Print | Product List | Glossary On
Versions: 1 2 3 4 5 6 7 8 9 10 11 12 13 14 15 16 17 18 19 20 21 22 23 24
195
FTUS44 KLUB 311741
TAFLBB
TAF
KLBB 311741Z 3118/0118 09011KT P6SM SCT035
     FM010000 15012KT 5SM -TSRA SCT025CB BKN040
     FM010500 04010KT P6SM SCT015 BKN035=

USA.gov is the U.S. government's official web portal to all federal, state and local government web resources and services.